Hua Hin, Thailand
Current Conditions -  °F | °C
As of 5:30 PM on Tuesday 27 Jan 2015 (Local Time) from VTBU Reporting Station
Haze Haze  
Wind Chill: 82°   Ceiling: Unl
Heat Index: 88°   Visibility: 1.8mi
Dew Point: 73°   Wind: 7mph
Humidity: 74%   Direction: 280°W
Pressure: 29.83"   Gusts: NA
Location:  12.57°N, 99.95°E
Report Text: VTBU 271030Z 28006KT 3000 BR NSC 28/23 Q1010 A2984
Loading
Personal Weather Stations






























Interactive Weather Map New forecast layout! Learn more

10-Day Weather Forecast

Advertisements
Track Severe Weather on mobile